Time;durP1;ratioP1;P1;durP2;ratioP2;P2;SDS_P1;SDS_P2;PMS_P1;PMS_P2;Temp;Humidity;BMP_temperature;BMP_pressure;BME280_temperature;BME280_humidity;BME280_pressure;Samples;Min_cycle;Max_cycle;Signal;HPM_P1;HPM_P2
2022/11/18 00:01:17;;;;;;;7.10;5.00;;;;;;;7.66;100.00;98252.47;5026025;28;20304;-62
2022/11/18 00:03:43;;;;;;;8.47;5.23;;;;;;;7.76;100.00;98250.84;5031185;28;20254;-62
2022/11/18 00:06:12;;;;;;;7.60;5.30;;;;;;;7.78;100.00;98248.19;5052607;28;20244;-62
2022/11/18 00:08:38;;;;;;;9.03;5.60;;;;;;;7.66;100.00;98257.56;5052334;28;20189;-62
2022/11/18 00:11:06;;;;;;;8.43;5.43;;;;;;;7.71;100.00;98261.41;5042062;28;20577;-62
2022/11/18 00:16:15;;;;;;;9.63;5.47;;;;;;;7.70;100.00;98270.06;5039940;28;20343;-63
2022/11/18 00:18:40;;;;;;;7.27;4.60;;;;;;;7.85;100.00;98267.28;5052039;28;20276;-62
2022/11/18 00:21:10;;;;;;;5.33;4.83;;;;;;;7.97;100.00;98273.28;5042302;28;20221;-62
2022/11/18 00:23:37;;;;;;;7.97;5.40;;;;;;;8.04;100.00;98270.16;5034949;28;20173;-62
2022/11/18 00:26:04;;;;;;;12.57;6.50;;;;;;;8.00;100.00;98255.94;5034646;28;20189;-63
2022/11/18 00:28:30;;;;;;;7.90;5.10;;;;;;;7.97;100.00;98256.16;5039655;28;20527;-62
2022/11/18 00:31:12;;;;;;;7.50;5.83;;;;;;;7.91;100.00;98256.59;5004177;28;20225;-62
2022/11/18 00:33:38;;;;;;;5.30;4.80;;;;;;;7.99;100.00;98254.31;5023170;28;20223;-64
2022/11/18 00:36:06;;;;;;;7.47;5.67;;;;;;;7.90;100.00;98250.69;5034558;28;20177;-63
2022/11/18 00:38:31;;;;;;;8.97;5.90;;;;;;;7.90;100.00;98249.84;5033772;28;20229;-62
2022/11/18 00:41:07;;;;;;;14.33;5.93;;;;;;;7.87;100.00;98257.78;5041562;28;20221;-62
2022/11/18 00:43:34;;;;;;;6.43;5.10;;;;;;;7.94;100.00;98258.13;5022110;28;20182;-63
2022/11/18 00:45:59;;;;;;;6.87;6.17;;;;;;;7.67;100.00;98254.09;5021783;28;20224;-61
2022/11/18 00:48:25;;;;;;;11.27;5.67;;;;;;;7.74;100.00;98256.09;5051586;28;20597;-63
2022/11/18 00:50:52;;;;;;;8.77;5.47;;;;;;;7.72;100.00;98250.25;5041878;28;20220;-61
2022/11/18 00:53:18;;;;;;;10.27;6.00;;;;;;;7.76;100.00;98250.84;5050892;28;20182;-62
2022/11/18 00:55:43;;;;;;;6.97;5.43;;;;;;;7.79;100.00;98253.22;5051360;28;20585;-61
2022/11/18 00:58:12;;;;;;;10.23;6.30;;;;;;;7.85;100.00;98257.06;5063976;28;20208;-62
2022/11/18 01:00:39;;;;;;;8.53;5.67;;;;;;;7.87;100.00;98258.56;5033813;28;20224;-61
2022/11/18 01:03:04;;;;;;;9.47;5.33;;;;;;;7.94;100.00;98261.50;5045289;28;20586;-61
2022/11/18 01:05:29;;;;;;;8.60;6.20;;;;;;;7.98;100.00;98257.00;5052399;28;20169;-61
2022/11/18 01:07:54;;;;;;;10.30;5.43;;;;;;;7.85;100.00;98265.56;5051602;28;20260;-61
2022/11/18 01:10:20;;;;;;;9.53;5.50;;;;;;;7.87;100.00;98266.25;5041421;28;20551;-61
2022/11/18 01:15:29;;;;;;;9.47;6.03;;;;;;;8.00;100.00;98271.31;5051954;28;20734;-61
2022/11/18 01:17:54;;;;;;;7.07;5.67;;;;;;;8.01;100.00;98278.06;5051285;28;20193;-62
2022/11/18 01:20:20;;;;;;;8.47;5.97;;;;;;;8.00;100.00;98276.44;5041159;28;20181;-61
2022/11/18 01:22:45;;;;;;;10.10;6.30;;;;;;;7.97;100.00;98279.19;5033698;28;20587;-62
2022/11/18 01:25:10;;;;;;;8.73;5.57;;;;;;;7.83;100.00;98285.31;5051654;28;20183;-62
2022/11/18 01:27:35;;;;;;;8.73;6.73;;;;;;;7.83;100.00;98292.22;5035313;28;20233;-62
2022/11/18 01:30:01;;;;;;;6.63;5.37;;;;;;;7.66;100.00;98290.84;5062256;28;20523;-61
2022/11/18 01:32:27;;;;;;;11.40;5.47;;;;;;;7.86;100.00;98295.38;5022504;28;20217;-62
2022/11/18 01:34:53;;;;;;;7.43;6.10;;;;;;;7.94;100.00;98292.25;5033773;28;20208;-62
2022/11/18 01:37:18;;;;;;;8.63;5.70;;;;;;;8.02;100.00;98299.34;5051045;28;20582;-62
2022/11/18 01:39:43;;;;;;;7.07;5.83;;;;;;;7.90;100.00;98298.50;5051686;28;20275;-62
2022/11/18 01:42:16;;;;;;;8.40;6.17;;;;;;;7.69;100.00;98294.00;5039280;28;20308;-62
2022/11/18 01:45:08;;;;;;;9.57;5.73;;;;;;;7.63;100.00;98299.56;5050827;28;20188;-63
2022/11/18 01:47:45;;;;;;;10.47;6.83;;;;;;;7.77;100.00;98308.00;5032999;28;20353;-61
2022/11/18 01:50:14;;;;;;;23.77;6.90;;;;;;;7.94;100.00;98296.53;5022669;28;20200;-62
2022/11/18 01:52:40;;;;;;;8.87;6.20;;;;;;;7.97;100.00;98297.13;5044335;28;20174;-62
2022/11/18 01:55:21;;;;;;;8.67;5.90;;;;;;;7.77;100.00;98300.31;5032078;28;20178;-62
2022/11/18 01:57:48;;;;;;;17.60;6.53;;;;;;;7.98;100.00;98301.31;5033274;28;20223;-61
2022/11/18 02:00:14;;;;;;;9.17;6.53;;;;;;;8.01;100.00;98302.84;5024039;28;20766;-62
2022/11/18 02:02:40;;;;;;;9.77;5.83;;;;;;;8.16;100.00;98306.84;5059593;28;20288;-61
2022/11/18 02:05:09;;;;;;;8.87;6.53;;;;;;;8.26;100.00;98301.88;5033039;28;20185;-61
2022/11/18 02:07:37;;;;;;;8.90;6.30;;;;;;;8.36;100.00;98302.00;5050693;28;20632;-61
2022/11/18 02:10:05;;;;;;;7.60;6.37;;;;;;;8.42;100.00;98304.09;5025314;28;20182;-63
2022/11/18 02:12:31;;;;;;;11.43;5.90;;;;;;;8.44;100.00;98306.56;5049775;28;20286;-62
2022/11/18 02:14:56;;;;;;;15.70;6.83;;;;;;;8.45;100.00;98311.56;5032990;28;20582;-61
2022/11/18 02:17:50;;;;;;;9.57;6.70;;;;;;;8.12;100.00;98315.69;5050475;28;20298;-63
2022/11/18 02:20:38;;;;;;;11.17;6.90;;;;;;;8.21;100.00;98316.75;5010570;28;20268;-62
2022/11/18 02:23:15;;;;;;;8.87;6.53;;;;;;;8.26;100.00;98324.94;5033058;28;20635;-62
2022/11/18 02:25:43;;;;;;;10.00;6.20;;;;;;;8.28;100.00;98332.50;5051109;28;20265;-62
2022/11/18 02:28:23;;;;;;;10.10;6.83;;;;;;;8.12;100.00;98333.59;5050860;28;20274;-62
2022/11/18 02:30:54;;;;;;;11.23;6.47;;;;;;;8.05;100.00;98335.81;5022954;28;20233;-62
2022/11/18 02:33:28;;;;;;;9.50;6.87;;;;;;;7.91;100.00;98336.81;5031782;28;20177;-62
2022/11/18 02:36:05;;;;;;;12.47;7.90;;;;;;;7.87;100.00;98337.94;5050908;28;20181;-62
2022/11/18 02:38:36;;;;;;;17.13;9.47;;;;;;;7.77;100.00;98347.19;5031974;28;20247;-62
2022/11/18 02:41:07;;;;;;;12.63;8.07;;;;;;;7.77;100.00;98347.19;5022782;28;20217;-62
2022/11/18 02:43:43;;;;;;;12.07;8.90;;;;;;;7.79;100.00;98347.91;5033020;28;20184;-63
2022/11/18 02:46:14;;;;;;;13.30;8.90;;;;;;;7.71;100.00;98351.00;5032791;28;20185;-62
2022/11/18 02:48:47;;;;;;;13.03;7.87;;;;;;;7.58;100.00;98348.50;5032106;28;20182;-62
2022/11/18 02:51:18;;;;;;;16.73;9.43;;;;;;;7.81;100.00;98348.59;5022156;28;20233;-63
2022/11/18 02:53:47;;;;;;;15.37;9.10;;;;;;;7.65;100.00;98350.63;5032691;28;20636;-62
2022/11/18 02:56:14;;;;;;;16.70;10.23;;;;;;;7.62;100.00;98355.97;5034347;28;20286;-63
2022/11/18 02:58:40;;;;;;;17.30;9.10;;;;;;;7.83;100.00;98344.22;5048552;28;20209;-61
2022/11/18 03:01:05;;;;;;;12.97;9.70;;;;;;;7.94;100.00;98343.44;5052659;28;20727;-61
2022/11/18 03:03:33;;;;;;;19.93;11.20;;;;;;;7.62;100.00;98345.75;5055360;28;20189;-62
2022/11/18 03:06:18;;;;;;;14.13;10.27;;;;;;;7.57;100.00;98348.63;5036513;28;20589;-61
2022/11/18 03:08:49;;;;;;;16.10;11.30;;;;;;;7.49;100.00;98346.59;5051539;28;20189;-61
2022/11/18 03:11:19;;;;;;;14.87;10.67;;;;;;;7.46;100.00;98343.44;5025603;28;20687;-61
2022/11/18 03:13:53;;;;;;;14.33;10.33;;;;;;;7.55;100.00;98347.91;5036045;28;20170;-62
2022/11/18 03:16:28;;;;;;;16.30;10.57;;;;;;;7.65;100.00;98343.75;5053616;28;20311;-61
2022/11/18 03:19:12;;;;;;;15.60;10.63;;;;;;;7.67;100.00;98347.03;5036275;28;20561;-62
2022/11/18 03:21:46;;;;;;;14.50;10.63;;;;;;;7.85;100.00;98344.09;5030489;28;20293;-62
2022/11/18 03:24:23;;;;;;;15.40;11.40;;;;;;;7.93;100.00;98343.56;5035875;28;20207;-60
2022/11/18 03:26:52;;;;;;;17.27;11.83;;;;;;;7.64;100.00;98346.44;5053644;28;20181;-61
2022/11/18 03:29:28;;;;;;;19.10;12.60;;;;;;;7.74;100.00;98343.13;5065847;28;20515;-62
2022/11/18 03:32:09;;;;;;;16.77;12.30;;;;;;;7.59;100.00;98341.63;5025492;28;20244;-61
2022/11/18 03:34:43;;;;;;;16.10;11.10;;;;;;;7.58;100.00;98348.50;5053751;28;20192;-61
2022/11/18 03:37:13;;;;;;;15.37;11.60;;;;;;;7.62;100.00;98353.41;5052802;28;20189;-61
2022/11/18 03:39:43;;;;;;;14.57;11.70;;;;;;;7.62;100.00;98366.22;5053571;28;20228;-62
2022/11/18 03:42:18;;;;;;;16.27;11.97;;;;;;;7.69;100.00;98368.22;5025381;28;20354;-61
2022/11/18 03:44:51;;;;;;;20.27;13.00;;;;;;;7.69;100.00;98358.00;5053564;28;20177;-61
2022/11/18 03:47:25;;;;;;;16.80;12.07;;;;;;;7.69;100.00;98362.28;5034155;28;20256;-62
2022/11/18 03:49:56;;;;;;;16.90;12.80;;;;;;;7.71;100.00;98368.91;5035767;28;20177;-61
2022/11/18 03:52:27;;;;;;;15.87;12.23;;;;;;;7.76;100.00;98368.59;5008296;28;20390;-62
2022/11/18 03:54:55;;;;;;;15.17;11.60;;;;;;;7.91;100.00;98380.31;5035562;28;20177;-63
2022/11/18 03:57:28;;;;;;;16.37;12.97;;;;;;;7.83;100.00;98380.03;5046366;28;20181;-62
2022/11/18 04:00:01;;;;;;;15.27;12.50;;;;;;;7.65;100.00;98389.81;5040745;28;20185;-61
2022/11/18 04:02:29;;;;;;;16.23;10.93;;;;;;;7.80;100.00;98393.06;5017635;28;20221;-61
2022/11/18 04:04:56;;;;;;;16.57;11.47;;;;;;;7.93;100.00;98403.25;5049002;28;20204;-62
2022/11/18 04:07:31;;;;;;;15.70;13.00;;;;;;;7.86;100.00;98399.50;5034222;28;20277;-61
2022/11/18 04:10:01;;;;;;;15.27;11.70;;;;;;;7.58;100.00;98394.56;5034927;28;20174;-61
2022/11/18 04:12:34;;;;;;;14.90;11.33;;;;;;;7.80;100.00;98399.91;5007721;28;20279;-61
2022/11/18 04:14:59;;;;;;;16.73;11.93;;;;;;;7.96;100.00;98397.91;5053112;28;20537;-61
2022/11/18 04:17:27;;;;;;;15.97;11.90;;;;;;;7.96;100.00;98412.47;5041584;28;20232;-61
2022/11/18 04:19:53;;;;;;;14.13;10.73;;;;;;;8.05;100.00;98412.63;5052903;28;20185;-63
2022/11/18 04:22:19;;;;;;;14.13;11.93;;;;;;;8.10;100.00;98412.31;5041475;28;20255;-62
2022/11/18 04:24:44;;;;;;;15.20;12.80;;;;;;;8.14;100.00;98411.16;5052592;28;20610;-62
2022/11/18 04:27:11;;;;;;;15.77;11.80;;;;;;;8.16;100.00;98411.88;5034673;28;20180;-62
2022/11/18 04:29:36;;;;;;;16.20;11.63;;;;;;;8.02;100.00;98415.38;5035281;28;20189;-61
2022/11/18 04:32:03;;;;;;;14.13;10.53;;;;;;;7.81;100.00;98410.03;5020957;28;20693;-61
2022/11/18 04:34:29;;;;;;;13.17;10.97;;;;;;;7.75;100.00;98413.88;5034215;28;20192;-61
2022/11/18 04:36:57;;;;;;;17.60;12.03;;;;;;;7.75;100.00;98418.97;5034078;28;20513;-61
2022/11/18 04:39:23;;;;;;;15.10;11.40;;;;;;;7.88;100.00;98420.69;5034079;28;20236;-62
2022/11/18 04:41:54;;;;;;;14.77;11.57;;;;;;;7.70;100.00;98412.53;5024697;28;20583;-62
2022/11/18 04:44:30;;;;;;;16.57;11.87;;;;;;;7.72;100.00;98419.19;5052116;28;20655;-61
2022/11/18 04:46:57;;;;;;;13.27;11.07;;;;;;;7.78;100.00;98423.06;5033775;28;20180;-61
2022/11/18 04:49:23;;;;;;;12.73;11.23;;;;;;;7.76;100.00;98432.59;5034231;28;20250;-63
2022/11/18 04:51:49;;;;;;;19.47;12.23;;;;;;;7.65;100.00;98425.66;5024010;28;20282;-62
2022/11/18 04:54:16;;;;;;;13.50;11.20;;;;;;;7.63;100.00;98435.19;5034106;28;20181;-62
2022/11/18 04:56:42;;;;;;;14.63;12.03;;;;;;;7.83;100.00;98436.34;5033558;28;20190;-61
2022/11/18 04:59:08;;;;;;;15.20;11.53;;;;;;;7.92;100.00;98437.47;5034360;28;20189;-63
2022/11/18 05:01:34;;;;;;;15.93;12.13;;;;;;;8.02;100.00;98445.31;5052201;28;20234;-62
2022/11/18 05:04:01;;;;;;;17.07;12.37;;;;;;;7.95;100.00;98444.09;5051617;28;20656;-63
2022/11/18 05:06:26;;;;;;;17.50;11.57;;;;;;;7.94;100.00;98447.59;5033648;28;20184;-61
2022/11/18 05:08:52;;;;;;;14.47;12.30;;;;;;;8.01;100.00;98448.78;5034166;28;20181;-62
2022/11/18 05:14:01;;;;;;;17.33;11.70;;;;;;;8.12;100.00;98446.28;5052139;28;20207;-62
2022/11/18 05:16:27;;;;;;;15.97;11.00;;;;;;;8.05;100.00;98447.63;5051099;28;20181;-62
2022/11/18 05:18:52;;;;;;;20.93;12.63;;;;;;;8.14;100.00;98448.75;5051035;28;20209;-64
2022/11/18 05:21:18;;;;;;;16.70;12.17;;;;;;;7.98;100.00;98457.50;5040547;28;20255;-63
2022/11/18 05:23:44;;;;;;;16.93;12.70;;;;;;;7.90;100.00;98460.63;5033881;28;20209;-62
2022/11/18 05:26:10;;;;;;;13.47;11.27;;;;;;;7.81;100.00;98455.31;5051247;28;20248;-62
2022/11/18 05:28:48;;;;;;;;;;;;;;;;;;;;;
2022/11/18 05:31:17;;;;;;;15.37;11.43;;;;;;;8.04;100.00;98471.63;5037276;28;20213;-62
2022/11/18 05:33:42;;;;;;;16.73;12.47;;;;;;;8.00;100.00;98465.91;5050724;28;20211;-62
2022/11/18 05:36:19;;;;;;;13.97;11.93;;;;;;;7.97;100.00;98470.44;5050884;28;20177;-63
2022/11/18 05:38:45;;;;;;;14.03;11.07;;;;;;;8.08;100.00;98466.16;5046456;28;20655;-62
2022/11/18 05:43:09;;;;;;;14.23;10.67;;;;;;;8.13;100.00;98468.41;5023371;28;20312;-62
2022/11/18 05:43:57;;;;;;;15.83;11.43;;;;;;;8.10;100.00;98478.88;5050618;28;20216;-62
2022/11/18 05:46:23;;;;;;;19.60;12.57;;;;;;;8.05;100.00;98475.81;5050866;28;20212;-63
2022/11/18 05:48:48;;;;;;;13.53;10.97;;;;;;;7.98;100.00;98474.63;5051102;28;20633;-62
2022/11/18 05:51:13;;;;;;;16.07;10.83;;;;;;;7.87;100.00;98475.38;5023268;28;20227;-62
2022/11/18 05:53:39;;;;;;;18.63;11.87;;;;;;;7.85;100.00;98479.75;5050700;28;20174;-62
2022/11/18 05:56:24;;;;;;;17.97;11.37;;;;;;;7.54;100.00;98482.69;5051373;28;20185;-62
2022/11/18 05:58:49;;;;;;;15.00;10.43;;;;;;;7.56;100.00;98478.28;5034205;28;20205;-60
2022/11/18 06:01:19;;;;;;;11.33;10.13;;;;;;;7.68;100.00;98480.94;5050809;28;20713;-61
2022/11/18 06:03:45;;;;;;;16.10;11.07;;;;;;;7.77;100.00;98484.63;5033595;28;20187;-61
2022/11/18 06:06:14;;;;;;;17.37;11.63;;;;;;;7.82;100.00;98491.03;5051115;28;20174;-61
2022/11/18 06:08:47;;;;;;;13.73;10.70;;;;;;;7.77;100.00;98495.66;5033079;28;20195;-61
2022/11/18 06:11:16;;;;;;;13.57;10.87;;;;;;;7.85;100.00;98502.81;5022891;28;20763;-61
2022/11/18 06:13:50;;;;;;;19.53;11.80;;;;;;;7.97;100.00;98506.28;5033646;28;20231;-60
2022/11/18 06:16:21;;;;;;;19.73;12.40;;;;;;;7.97;100.00;98508.84;5050869;28;20191;-65
2022/11/18 06:18:46;;;;;;;18.63;12.43;;;;;;;7.95;100.00;98514.06;5051418;28;20189;-60
2022/11/18 06:21:12;;;;;;;18.30;12.50;;;;;;;7.90;100.00;98514.38;5040079;28;20328;-60
2022/11/18 06:23:39;;;;;;;17.77;13.03;;;;;;;7.94;100.00;98516.72;5033692;28;20177;-60
2022/11/18 06:26:06;;;;;;;20.13;13.77;;;;;;;7.98;100.00;98520.72;5033269;28;20196;-61
2022/11/18 06:28:32;;;;;;;18.93;12.53;;;;;;;7.98;100.00;98524.09;5042945;28;20574;-60
2022/11/18 06:30:58;;;;;;;16.63;12.80;;;;;;;8.03;100.00;98529.69;5026866;28;20224;-61
2022/11/18 06:33:23;;;;;;;13.23;11.67;;;;;;;8.01;100.00;98534.13;5053941;28;20548;-61
2022/11/18 06:35:48;;;;;;;16.73;11.80;;;;;;;8.13;100.00;98541.88;5054902;28;20177;-61
2022/11/18 06:38:14;;;;;;;17.07;10.17;;;;;;;8.23;100.00;98543.69;5054535;28;20648;-61
2022/11/18 06:40:43;;;;;;;20.00;11.23;;;;;;;8.19;100.00;98555.06;5043676;28;20319;-61
2022/11/18 06:48:43;;;;;;;13.37;10.13;;;;;;;8.07;100.00;98561.88;5054265;28;20749;-61
2022/11/18 06:51:08;;;;;;;14.77;10.40;;;;;;;7.99;100.00;98561.56;5035307;28;20309;-61
2022/11/18 06:53:34;;;;;;;14.43;9.23;;;;;;;7.99;100.00;98570.97;5052689;28;20178;-62
2022/11/18 06:56:04;;;;;;;11.10;7.60;;;;;;;7.93;100.00;98567.13;5054191;28;20316;-60
2022/11/18 06:58:29;;;;;;;10.43;6.13;;;;;;;7.95;100.00;98565.28;5036009;28;20711;-62
2022/11/18 07:00:54;;;;;;;6.57;5.57;;;;;;;7.98;100.00;98574.50;5044682;28;20225;-61
2022/11/18 07:03:20;;;;;;;9.07;5.97;;;;;;;8.04;100.00;98574.06;5053709;28;20554;-61
2022/11/18 07:05:45;;;;;;;6.97;5.37;;;;;;;8.12;100.00;98583.78;5036492;28;20235;-61
2022/11/18 07:08:10;;;;;;;6.30;5.57;;;;;;;8.15;100.00;98584.38;5053814;28;20188;-60
2022/11/18 07:10:35;;;;;;;7.10;4.37;;;;;;;8.09;100.00;98589.94;5043315;28;20221;-60
2022/11/18 07:13:01;;;;;;;7.40;5.00;;;;;;;8.07;100.00;98587.47;5053514;28;20197;-61
2022/11/18 07:15:26;;;;;;;7.83;4.67;;;;;;;8.18;100.00;98599.53;5053817;28;20213;-61
2022/11/18 07:17:51;;;;;;;7.63;5.23;;;;;;;8.19;100.00;98600.38;5053585;28;20291;-65
2022/11/18 07:20:17;;;;;;;6.10;4.57;;;;;;;8.23;100.00;98600.03;5043227;28;20205;-61
2022/11/18 07:22:42;;;;;;;7.47;4.30;;;;;;;8.33;100.00;98602.78;5052793;28;20597;-62
2022/11/18 07:25:08;;;;;;;5.23;4.10;;;;;;;8.30;100.00;98613.25;5053590;28;20192;-61
2022/11/18 07:27:33;;;;;;;4.73;3.50;;;;;;;8.30;100.00;98609.84;5052250;28;20201;-61
2022/11/18 07:29:58;;;;;;;5.30;3.93;;;;;;;8.33;100.00;98617.34;5041632;28;20256;-59
2022/11/18 07:32:24;;;;;;;4.87;3.47;;;;;;;8.45;100.00;98610.56;5042734;28;20225;-59
2022/11/18 07:34:49;;;;;;;5.23;3.63;;;;;;;8.34;100.00;98617.22;5043486;28;20178;-63
2022/11/18 07:37:14;;;;;;;3.90;3.30;;;;;;;8.37;100.00;98629.84;5052611;28;20260;-62
2022/11/18 07:39:40;;;;;;;3.50;2.90;;;;;;;8.41;100.00;98627.91;5053712;28;20225;-62
2022/11/18 07:42:05;;;;;;;3.40;2.47;;;;;;;8.51;100.00;98626.34;5040822;28;20228;-62
2022/11/18 07:44:30;;;;;;;3.40;2.20;;;;;;;8.53;100.00;98632.19;5035343;28;20190;-62
2022/11/18 07:46:55;;;;;;;4.60;2.43;;;;;;;8.45;100.00;98637.00;5052832;28;20192;-62
2022/11/18 07:49:21;;;;;;;4.40;2.33;;;;;;;8.39;100.00;98638.22;5035658;28;20184;-61
2022/11/18 07:51:46;;;;;;;4.03;2.77;;;;;;;8.58;100.00;98642.09;5042464;28;20369;-62
2022/11/18 07:54:13;;;;;;;3.40;2.50;;;;;;;8.63;100.00;98646.91;5053221;28;20269;-62
2022/11/18 07:56:39;;;;;;;3.53;2.30;;;;;;;8.61;100.00;98649.59;5034426;28;20217;-63
2022/11/18 07:59:04;;;;;;;5.47;2.70;;;;;;;8.65;100.00;98650.22;5053197;28;20241;-62
2022/11/18 08:01:30;;;;;;;3.30;2.40;;;;;;;8.64;100.00;98649.38;5043493;28;20225;-61
2022/11/18 08:03:57;;;;;;;3.30;2.53;;;;;;;8.69;100.00;98656.75;5028012;28;20181;-61
2022/11/18 08:06:22;;;;;;;3.60;2.40;;;;;;;8.72;100.00;98661.69;5052499;28;20184;-61
2022/11/18 08:08:49;;;;;;;5.37;2.73;;;;;;;8.64;100.00;98662.19;5053148;28;20194;-62
2022/11/18 08:11:17;;;;;;;3.00;2.37;;;;;;;8.72;100.00;98661.69;5024944;28;20260;-62
2022/11/18 08:13:42;;;;;;;4.07;2.60;;;;;;;8.79;100.00;98665.41;5034980;28;20182;-62
2022/11/18 08:16:21;;;;;;;2.87;2.27;;;;;;;8.61;100.00;98674.41;5042180;28;20286;-63
2022/11/18 08:18:46;;;;;;;2.27;2.03;;;;;;;8.75;100.00;98670.91;5025108;28;20243;-61
2022/11/18 08:21:13;;;;;;;2.23;1.93;;;;;;;8.64;100.00;98679.31;5042091;28;20230;-62
2022/11/18 08:23:39;;;;;;;3.40;1.80;;;;;;;8.72;100.00;98684.75;5034800;28;20173;-62
2022/11/18 08:26:07;;;;;;;4.77;2.23;;;;;;;8.90;100.00;98687.75;5034393;28;20257;-62
2022/11/18 08:28:33;;;;;;;2.50;2.03;;;;;;;8.95;100.00;98687.44;5034673;28;20185;-62
2022/11/18 08:30:59;;;;;;;3.53;2.07;;;;;;;8.99;100.00;98694.81;5020929;28;20282;-62
2022/11/18 08:33:24;;;;;;;2.70;1.77;;;;;;;9.02;100.00;98698.91;5051555;28;20174;-61
2022/11/18 08:35:50;;;;;;;6.10;1.80;;;;;;;8.98;100.00;98700.88;5051817;28;20174;-64
2022/11/18 08:38:16;;;;;;;2.33;1.80;;;;;;;8.92;100.00;98701.31;5051905;28;20559;-62
2022/11/18 08:40:45;;;;;;;1.73;1.53;;;;;;;8.86;100.00;98696.59;5023494;28;20225;-61
2022/11/18 08:43:11;;;;;;;3.20;1.70;;;;;;;8.75;100.00;98697.34;5034759;28;20189;-62
2022/11/18 08:45:38;;;;;;;3.03;1.37;;;;;;;8.82;100.00;98706.25;5052310;28;20186;-61
2022/11/18 08:48:03;;;;;;;4.17;1.53;;;;;;;8.99;100.00;98709.38;5033493;28;20629;-62
2022/11/18 08:50:29;;;;;;;3.80;1.53;;;;;;;9.06;100.00;98705.44;5041876;28;20245;-62
2022/11/18 08:52:54;;;;;;;4.30;2.00;;;;;;;9.07;100.00;98699.41;5048665;28;20253;-62
2022/11/18 08:55:20;;;;;;;2.63;1.17;;;;;;;9.20;100.00;98705.31;5051631;28;20193;-61
2022/11/18 08:57:46;;;;;;;2.63;1.53;;;;;;;9.28;100.00;98706.47;5058454;28;20207;-61
2022/11/18 09:00:13;;;;;;;1.17;1.00;;;;;;;9.39;100.00;98706.56;5043098;28;20181;-61
2022/11/18 09:02:39;;;;;;;1.23;1.07;;;;;;;9.57;100.00;98713.84;5053300;28;20251;-62
2022/11/18 09:05:04;;;;;;;1.47;1.30;;;;;;;10.02;100.00;98707.09;5050855;28;20421;-62
2022/11/18 09:07:30;;;;;;;1.60;1.50;;;;;;;9.92;100.00;98702.72;5052373;28;20178;-62
2022/11/18 09:09:55;;;;;;;2.30;1.30;;;;;;;9.98;100.00;98710.78;5051919;28;20255;-62
2022/11/18 09:12:20;;;;;;;3.87;1.30;;;;;;;10.00;100.00;98703.00;5040451;28;20252;-62
2022/11/18 09:14:46;;;;;;;2.17;1.40;;;;;;;10.07;100.00;98709.31;5052125;28;20176;-62
2022/11/18 09:17:13;;;;;;;2.23;1.30;;;;;;;9.92;100.00;98706.09;5051956;28;20177;-62
2022/11/18 09:19:39;;;;;;;1.80;1.43;;;;;;;9.83;100.00;98714.50;5033573;28;20221;-63
2022/11/18 09:22:05;;;;;;;1.33;1.23;;;;;;;9.94;100.00;98711.16;5040221;28;20258;-62
2022/11/18 09:24:31;;;;;;;2.93;1.33;;;;;;;10.16;100.00;98708.59;5033596;28;20169;-63
2022/11/18 09:26:56;;;;;;;2.53;1.20;;;;;;;10.27;100.00;98707.81;5051334;28;20188;-63
2022/11/18 09:29:24;;;;;;;2.50;1.40;;;;;;;10.39;100.00;98703.50;5055096;28;20185;-62
2022/11/18 09:31:50;;;;;;;3.40;1.60;;;;;;;10.63;100.00;98703.38;5040012;28;20248;-62
2022/11/18 09:34:16;;;;;;;5.47;1.53;;;;;;;10.62;100.00;98714.59;5050677;28;20678;-62
2022/11/18 09:36:41;;;;;;;2.03;1.30;;;;;;;10.77;100.00;98716.94;5051220;28;20200;-62
2022/11/18 09:39:06;;;;;;;3.60;1.77;;;;;;;10.63;100.00;98721.38;5050747;28;21003;-62
2022/11/18 09:41:41;;;;;;;1.80;1.27;;;;;;;10.64;100.00;98729.91;5040000;28;20289;-62
2022/11/18 09:44:29;;;;;;;2.53;1.50;;;;;;;10.82;100.00;98728.50;5033001;28;20192;-62
2022/11/18 09:47:19;;;;;;;1.93;1.40;;;;;;;10.69;100.00;98740.66;5033023;28;20186;-62
2022/11/18 09:49:45;;;;;;;1.30;1.10;;;;;;;10.67;100.00;98739.97;5024790;28;20189;-61
2022/11/18 09:52:37;;;;;;;2.10;1.37;;;;;;;10.63;100.00;98738.56;5022629;28;20221;-62
2022/11/18 09:55:11;;;;;;;2.40;1.40;;;;;;;10.58;100.00;98743.25;5050884;28;20235;-62
2022/11/18 09:57:39;;;;;;;2.92;1.20;;;;;;;11.07;100.00;98738.63;5021124;28;20404;-60
2022/11/18 10:00:16;;;;;;;2.30;1.60;;;;;;;10.60;100.00;98743.94;5023106;28;20637;-63
2022/11/18 10:02:53;;;;;;;2.03;1.50;;;;;;;10.65;100.00;98745.25;5050211;28;20302;-61
2022/11/18 10:05:21;;;;;;;4.07;1.43;;;;;;;10.93;100.00;98747.44;5052834;28;20193;-63
2022/11/18 10:08:01;;;;;;;2.50;1.50;;;;;;;10.80;100.00;98744.97;5057500;28;20177;-63
2022/11/18 10:11:06;;;;;;;3.27;1.33;;;;;;;10.85;100.00;98749.78;5046635;28;20228;-62
2022/11/18 10:14:00;;;;;;;2.07;1.30;;;;;;;11.02;100.00;98757.00;5056732;28;20563;-62
2022/11/18 10:16:44;;;;;;;3.57;1.47;;;;;;;11.18;100.00;98758.41;5038319;28;20189;-61
2022/11/18 10:19:19;;;;;;;3.00;1.67;;;;;;;11.00;100.00;98756.28;5039581;28;20616;-61
2022/11/18 10:21:53;;;;;;;3.40;1.50;;;;;;;10.95;100.00;98766.97;5037781;28;20216;-62
2022/11/18 10:24:24;;;;;;;3.10;1.40;;;;;;;10.96;100.00;98771.19;5053808;28;20184;-62
2022/11/18 10:26:58;;;;;;;2.23;1.30;;;;;;;10.88;100.00;98763.22;5057174;28;20633;-62
2022/11/18 10:29:24;;;;;;;3.83;1.60;;;;;;;10.55;100.00;98775.16;5036885;28;20188;-63
2022/11/18 10:32:01;;;;;;;3.37;1.60;;;;;;;10.71;100.00;98774.81;5009334;28;20237;-63
2022/11/18 10:34:26;;;;;;;1.40;1.20;;;;;;;11.07;100.00;98775.47;5057004;28;20264;-62
2022/11/18 10:36:58;;;;;;;2.50;1.10;;;;;;;11.18;100.00;98766.91;5057114;28;20260;-62
2022/11/18 10:39:23;;;;;;;1.17;0.90;;;;;;;11.51;100.00;98772.09;5056952;28;20252;-63
2022/11/18 10:41:52;;;;;;;1.63;1.10;;;;;;;11.61;100.00;98766.09;5046933;28;20221;-63
2022/11/18 10:44:31;;;;;;;3.43;1.10;;;;;;;11.75;100.00;98774.47;5066529;28;20190;-61
2022/11/18 10:47:23;;;;;;;2.07;1.00;;;;;;;11.85;100.00;98771.97;5060305;28;20172;-62
2022/11/18 10:49:50;;;;;;;3.27;1.20;;;;;;;11.98;100.00;98774.38;5040271;28;20578;-62
2022/11/18 10:52:15;;;;;;;2.83;1.30;;;;;;;11.98;100.00;98779.53;5030662;28;20724;-72
2022/11/18 10:54:42;;;;;;;2.47;1.23;;;;;;;11.86;100.00;98769.25;5057840;28;20174;-63
2022/11/18 10:57:17;;;;;;;1.70;1.37;;;;;;;11.80;100.00;98772.34;5038954;28;20189;-62
2022/11/18 10:59:43;;;;;;;1.57;1.00;;;;;;;11.67;100.00;98779.41;5039678;28;20307;-62
2022/11/18 11:02:31;;;;;;;4.93;2.90;;;;;;;11.54;100.00;98777.81;5048271;28;20308;-62
2022/11/18 11:05:00;;;;;;;2.70;1.77;;;;;;;12.32;100.00;98774.22;5051712;28;20483;-62
2022/11/18 11:07:34;;;;;;;2.10;1.27;;;;;;;11.89;100.00;98783.66;5056606;28;20511;-61
2022/11/18 11:10:06;;;;;;;2.00;1.50;;;;;;;11.49;100.00;98779.94;5057000;28;20188;-62
2022/11/18 11:12:45;;;;;;;3.93;1.53;;;;;;;11.43;100.00;98785.59;5029502;28;20304;-63
2022/11/18 11:15:31;;;;;;;2.93;1.50;;;;;;;11.31;100.00;98784.78;5057259;28;20173;-62
2022/11/18 11:20:44;;;;;;;2.27;1.47;;;;;;;11.40;100.00;98786.66;5037768;28;20303;-62
2022/11/18 11:23:12;;;;;;;2.20;1.40;;;;;;;11.86;100.00;98787.31;5052075;28;20895;-62
2022/11/18 11:26:00;;;;;;;3.07;1.50;;;;;;;11.63;100.00;98778.84;5036288;28;20194;-62
2022/11/18 11:28:28;;;;;;;1.47;1.27;;;;;;;11.79;100.00;98789.56;5045438;28;20601;-62
2022/11/18 11:31:16;;;;;;;4.77;1.70;;;;;;;11.88;100.00;98779.44;5005724;28;20321;-64
2022/11/18 11:34:18;;;;;;;3.73;1.57;;;;;;;11.87;100.00;98786.38;5046768;28;20256;-62
2022/11/18 11:37:04;;;;;;;2.90;1.40;;;;;;;12.06;100.00;98779.75;5035530;28;20192;-63
2022/11/18 11:39:44;;;;;;;2.77;1.50;;;;;;;12.22;100.00;98781.88;5053705;28;20308;-62
2022/11/18 11:42:31;;;;;;;3.60;1.33;;;;;;;12.35;100.00;98792.78;5041469;28;20224;-62
2022/11/18 11:45:04;;;;;;;2.50;1.40;;;;;;;12.55;100.00;98783.41;5053696;28;20193;-62
2022/11/18 11:47:55;;;;;;;2.23;1.20;;;;;;;12.46;100.00;98794.50;5034597;28;20701;-62
2022/11/18 11:50:59;;;;;;;2.17;1.27;;;;;;;12.38;100.00;98794.31;5028299;28;20208;-61
2022/11/18 11:53:49;;;;;;;2.87;1.73;;;;;;;12.45;100.00;98786.88;4978485;28;20195;-61
2022/11/18 11:56:33;;;;;;;1.10;1.00;;;;;;;12.18;100.00;98788.22;4985125;28;20199;-66